sensor_id;sensor_type;location;lat;lon;timestamp;temperature;humidity
63383;DHT22;49512;48.744;9.176;2022-07-06T00:02:19;18.20;57.50
63383;DHT22;49512;48.744;9.176;2022-07-06T00:04:45;18.10;57.90
63383;DHT22;49512;48.744;9.176;2022-07-06T00:07:17;18.20;56.50
63383;DHT22;49512;48.744;9.176;2022-07-06T00:09:42;18.00;57.20
63383;DHT22;49512;48.744;9.176;2022-07-06T00:12:08;18.10;57.50
63383;DHT22;49512;48.744;9.176;2022-07-06T00:14:34;18.00;58.70
63383;DHT22;49512;48.744;9.176;2022-07-06T00:16:59;18.00;57.70
63383;DHT22;49512;48.744;9.176;2022-07-06T00:19:25;18.10;57.40
63383;DHT22;49512;48.744;9.176;2022-07-06T00:21:50;18.10;56.80
63383;DHT22;49512;48.744;9.176;2022-07-06T00:24:16;18.10;57.30
63383;DHT22;49512;48.744;9.176;2022-07-06T00:26:43;18.00;57.80
63383;DHT22;49512;48.744;9.176;2022-07-06T00:29:09;18.00;57.50
63383;DHT22;49512;48.744;9.176;2022-07-06T00:31:35;18.00;57.00
63383;DHT22;49512;48.744;9.176;2022-07-06T00:34:00;18.00;58.00
63383;DHT22;49512;48.744;9.176;2022-07-06T00:36:26;17.90;58.30
63383;DHT22;49512;48.744;9.176;2022-07-06T00:38:52;18.00;57.60
63383;DHT22;49512;48.744;9.176;2022-07-06T00:41:18;17.90;57.60
63383;DHT22;49512;48.744;9.176;2022-07-06T00:43:46;17.90;57.90
63383;DHT22;49512;48.744;9.176;2022-07-06T00:46:12;17.90;57.60
63383;DHT22;49512;48.744;9.176;2022-07-06T00:48:37;17.90;57.70
63383;DHT22;49512;48.744;9.176;2022-07-06T00:51:03;17.80;58.00
63383;DHT22;49512;48.744;9.176;2022-07-06T00:53:28;17.70;58.30
63383;DHT22;49512;48.744;9.176;2022-07-06T00:55:54;17.80;58.40
63383;DHT22;49512;48.744;9.176;2022-07-06T00:58:19;17.70;58.00
63383;DHT22;49512;48.744;9.176;2022-07-06T01:00:48;17.70;57.90
63383;DHT22;49512;48.744;9.176;2022-07-06T01:03:13;17.70;58.60
63383;DHT22;49512;48.744;9.176;2022-07-06T01:05:39;17.70;58.20
63383;DHT22;49512;48.744;9.176;2022-07-06T01:08:04;17.70;58.80
63383;DHT22;49512;48.744;9.176;2022-07-06T01:10:30;17.70;59.00
63383;DHT22;49512;48.744;9.176;2022-07-06T01:12:55;17.70;58.70
63383;DHT22;49512;48.744;9.176;2022-07-06T01:15:22;17.60;58.60
63383;DHT22;49512;48.744;9.176;2022-07-06T01:17:48;17.50;57.90
63383;DHT22;49512;48.744;9.176;2022-07-06T01:20:14;17.60;59.40
63383;DHT22;49512;48.744;9.176;2022-07-06T01:22:40;17.50;59.60
63383;DHT22;49512;48.744;9.176;2022-07-06T01:25:06;17.50;58.70
63383;DHT22;49512;48.744;9.176;2022-07-06T01:27:34;17.50;58.00
63383;DHT22;49512;48.744;9.176;2022-07-06T01:30:00;17.40;59.50
63383;DHT22;49512;48.744;9.176;2022-07-06T01:32:25;17.40;58.90
63383;DHT22;49512;48.744;9.176;2022-07-06T01:34:51;17.40;58.90
63383;DHT22;49512;48.744;9.176;2022-07-06T01:37:16;17.40;58.20
63383;DHT22;49512;48.744;9.176;2022-07-06T01:39:42;17.30;59.40
63383;DHT22;49512;48.744;9.176;2022-07-06T01:42:07;17.30;59.80
63383;DHT22;49512;48.744;9.176;2022-07-06T01:44:33;17.30;59.90
63383;DHT22;49512;48.744;9.176;2022-07-06T01:46:58;17.20;58.90
63383;DHT22;49512;48.744;9.176;2022-07-06T01:49:23;17.20;60.00
63383;DHT22;49512;48.744;9.176;2022-07-06T01:51:49;17.10;60.10
63383;DHT22;49512;48.744;9.176;2022-07-06T01:54:14;17.10;59.30
63383;DHT22;49512;48.744;9.176;2022-07-06T01:56:40;17.00;59.20
63383;DHT22;49512;48.744;9.176;2022-07-06T01:59:05;17.00;60.50
63383;DHT22;49512;48.744;9.176;2022-07-06T02:01:31;16.90;60.30
63383;DHT22;49512;48.744;9.176;2022-07-06T02:03:59;16.90;60.40
63383;DHT22;49512;48.744;9.176;2022-07-06T02:06:25;16.70;60.90
63383;DHT22;49512;48.744;9.176;2022-07-06T02:08:50;16.70;61.50
63383;DHT22;49512;48.744;9.176;2022-07-06T02:11:17;16.60;61.40
63383;DHT22;49512;48.744;9.176;2022-07-06T02:13:42;16.60;62.00
63383;DHT22;49512;48.744;9.176;2022-07-06T02:16:08;16.60;60.80
63383;DHT22;49512;48.744;9.176;2022-07-06T02:18:33;16.60;61.60
63383;DHT22;49512;48.744;9.176;2022-07-06T02:20:59;16.50;62.70
63383;DHT22;49512;48.744;9.176;2022-07-06T02:23:24;16.50;63.20
63383;DHT22;49512;48.744;9.176;2022-07-06T02:25:51;16.50;63.00
63383;DHT22;49512;48.744;9.176;2022-07-06T02:28:16;16.40;62.20
63383;DHT22;49512;48.744;9.176;2022-07-06T02:30:42;16.40;62.60
63383;DHT22;49512;48.744;9.176;2022-07-06T02:33:08;16.60;62.80
63383;DHT22;49512;48.744;9.176;2022-07-06T02:35:33;16.50;62.60
63383;DHT22;49512;48.744;9.176;2022-07-06T02:37:59;16.30;62.70
63383;DHT22;49512;48.744;9.176;2022-07-06T02:40:24;16.30;64.30
63383;DHT22;49512;48.744;9.176;2022-07-06T02:42:49;16.20;64.60
63383;DHT22;49512;48.744;9.176;2022-07-06T02:45:15;16.30;64.10
63383;DHT22;49512;48.744;9.176;2022-07-06T02:47:40;16.10;64.50
63383;DHT22;49512;48.744;9.176;2022-07-06T02:50:06;16.10;65.30
63383;DHT22;49512;48.744;9.176;2022-07-06T02:52:32;16.00;66.10
63383;DHT22;49512;48.744;9.176;2022-07-06T02:54:57;16.10;66.00
63383;DHT22;49512;48.744;9.176;2022-07-06T02:57:23;16.10;65.30
63383;DHT22;49512;48.744;9.176;2022-07-06T02:59:48;16.10;66.40
63383;DHT22;49512;48.744;9.176;2022-07-06T03:02:18;16.10;65.80
63383;DHT22;49512;48.744;9.176;2022-07-06T03:04:43;16.00;67.20
63383;DHT22;49512;48.744;9.176;2022-07-06T03:07:09;16.00;66.40
63383;DHT22;49512;48.744;9.176;2022-07-06T03:09:34;15.90;67.30
63383;DHT22;49512;48.744;9.176;2022-07-06T03:12:00;15.80;68.10
63383;DHT22;49512;48.744;9.176;2022-07-06T03:14:26;15.80;67.70
63383;DHT22;49512;48.744;9.176;2022-07-06T03:16:52;15.90;67.10
63383;DHT22;49512;48.744;9.176;2022-07-06T03:19:18;15.90;67.50
63383;DHT22;49512;48.744;9.176;2022-07-06T03:21:43;15.80;67.50
63383;DHT22;49512;48.744;9.176;2022-07-06T03:24:09;15.80;69.00
63383;DHT22;49512;48.744;9.176;2022-07-06T03:26:34;15.70;68.40
63383;DHT22;49512;48.744;9.176;2022-07-06T03:29:00;15.80;69.30
63383;DHT22;49512;48.744;9.176;2022-07-06T03:31:25;15.70;69.40
63383;DHT22;49512;48.744;9.176;2022-07-06T03:33:51;15.70;69.50
63383;DHT22;49512;48.744;9.176;2022-07-06T03:36:17;15.80;68.60
63383;DHT22;49512;48.744;9.176;2022-07-06T03:38:42;15.70;69.20
63383;DHT22;49512;48.744;9.176;2022-07-06T03:41:08;15.80;69.00
63383;DHT22;49512;48.744;9.176;2022-07-06T03:43:33;15.80;68.50
63383;DHT22;49512;48.744;9.176;2022-07-06T03:45:59;15.70;69.70
63383;DHT22;49512;48.744;9.176;2022-07-06T03:48:25;15.70;69.10
63383;DHT22;49512;48.744;9.176;2022-07-06T03:50:50;15.60;70.20
63383;DHT22;49512;48.744;9.176;2022-07-06T03:53:16;15.60;71.00
63383;DHT22;49512;48.744;9.176;2022-07-06T03:55:41;15.70;70.10
63383;DHT22;49512;48.744;9.176;2022-07-06T03:58:06;15.70;69.50
63383;DHT22;49512;48.744;9.176;2022-07-06T04:00:32;15.70;69.60
63383;DHT22;49512;48.744;9.176;2022-07-06T04:03:00;15.70;69.60
63383;DHT22;49512;48.744;9.176;2022-07-06T04:05:25;15.70;69.90
63383;DHT22;49512;48.744;9.176;2022-07-06T04:07:50;15.80;68.50
63383;DHT22;49512;48.744;9.176;2022-07-06T04:10:16;15.80;70.70
63383;DHT22;49512;48.744;9.176;2022-07-06T04:12:42;15.70;70.80
63383;DHT22;49512;48.744;9.176;2022-07-06T04:15:08;15.80;69.80
63383;DHT22;49512;48.744;9.176;2022-07-06T04:17:34;15.80;69.00
63383;DHT22;49512;48.744;9.176;2022-07-06T04:20:17;15.80;70.40
63383;DHT22;49512;48.744;9.176;2022-07-06T04:22:43;16.00;69.40
63383;DHT22;49512;48.744;9.176;2022-07-06T04:25:08;16.00;70.00
63383;DHT22;49512;48.744;9.176;2022-07-06T04:27:34;16.80;66.60
63383;DHT22;49512;48.744;9.176;2022-07-06T04:30:00;17.40;64.60
63383;DHT22;49512;48.744;9.176;2022-07-06T04:32:26;18.40;60.20
63383;DHT22;49512;48.744;9.176;2022-07-06T04:34:51;19.00;56.10
63383;DHT22;49512;48.744;9.176;2022-07-06T04:37:17;19.90;53.70
63383;DHT22;49512;48.744;9.176;2022-07-06T04:39:42;20.30;51.20
63383;DHT22;49512;48.744;9.176;2022-07-06T04:42:08;20.30;50.90
63383;DHT22;49512;48.744;9.176;2022-07-06T04:44:33;20.60;49.30
63383;DHT22;49512;48.744;9.176;2022-07-06T04:46:59;20.60;48.80
63383;DHT22;49512;48.744;9.176;2022-07-06T04:49:24;20.60;49.40
63383;DHT22;49512;48.744;9.176;2022-07-06T04:51:50;20.80;48.80
63383;DHT22;49512;48.744;9.176;2022-07-06T04:54:15;21.20;48.80
63383;DHT22;49512;48.744;9.176;2022-07-06T04:56:41;21.40;46.80
63383;DHT22;49512;48.744;9.176;2022-07-06T04:59:06;21.20;47.20
63383;DHT22;49512;48.744;9.176;2022-07-06T05:01:32;21.40;44.70
63383;DHT22;49512;48.744;9.176;2022-07-06T05:03:57;21.70;46.10
63383;DHT22;49512;48.744;9.176;2022-07-06T05:06:23;21.50;43.60
63383;DHT22;49512;48.744;9.176;2022-07-06T05:08:48;21.30;45.00
63383;DHT22;49512;48.744;9.176;2022-07-06T05:11:14;21.50;46.50
63383;DHT22;49512;48.744;9.176;2022-07-06T05:13:39;21.80;47.00
63383;DHT22;49512;48.744;9.176;2022-07-06T05:16:05;21.60;45.80
63383;DHT22;49512;48.744;9.176;2022-07-06T05:18:30;21.60;46.70
63383;DHT22;49512;48.744;9.176;2022-07-06T05:20:56;22.20;45.20
63383;DHT22;49512;48.744;9.176;2022-07-06T05:23:21;22.30;44.50
63383;DHT22;49512;48.744;9.176;2022-07-06T05:25:47;22.50;44.90
63383;DHT22;49512;48.744;9.176;2022-07-06T05:28:12;22.20;43.30
63383;DHT22;49512;48.744;9.176;2022-07-06T05:30:38;22.10;46.20
63383;DHT22;49512;48.744;9.176;2022-07-06T05:33:03;22.30;44.60
63383;DHT22;49512;48.744;9.176;2022-07-06T05:35:29;22.30;45.00
63383;DHT22;49512;48.744;9.176;2022-07-06T05:37:54;21.50;44.50
63383;DHT22;49512;48.744;9.176;2022-07-06T05:40:20;21.70;48.00
63383;DHT22;49512;48.744;9.176;2022-07-06T05:42:45;21.70;48.30
63383;DHT22;49512;48.744;9.176;2022-07-06T05:45:11;21.80;47.40
63383;DHT22;49512;48.744;9.176;2022-07-06T05:47:36;22.30;46.20
63383;DHT22;49512;48.744;9.176;2022-07-06T05:50:20;23.00;44.00
63383;DHT22;49512;48.744;9.176;2022-07-06T05:52:55;22.80;43.20
63383;DHT22;49512;48.744;9.176;2022-07-06T05:55:20;22.80;44.70
63383;DHT22;49512;48.744;9.176;2022-07-06T05:57:46;22.90;42.60
63383;DHT22;49512;48.744;9.176;2022-07-06T06:00:12;23.50;41.00
63383;DHT22;49512;48.744;9.176;2022-07-06T06:02:38;23.50;41.00
63383;DHT22;49512;48.744;9.176;2022-07-06T06:05:05;23.90;39.30
63383;DHT22;49512;48.744;9.176;2022-07-06T06:07:30;24.10;38.50
63383;DHT22;49512;48.744;9.176;2022-07-06T06:09:56;24.60;37.80
63383;DHT22;49512;48.744;9.176;2022-07-06T06:12:21;24.50;37.60
63383;DHT22;49512;48.744;9.176;2022-07-06T06:14:46;24.00;37.20
63383;DHT22;49512;48.744;9.176;2022-07-06T06:17:12;25.00;37.30
63383;DHT22;49512;48.744;9.176;2022-07-06T06:19:37;25.30;37.20
63383;DHT22;49512;48.744;9.176;2022-07-06T06:22:03;24.70;37.50
63383;DHT22;49512;48.744;9.176;2022-07-06T06:24:29;25.50;35.40
63383;DHT22;49512;48.744;9.176;2022-07-06T06:26:54;25.50;34.80
63383;DHT22;49512;48.744;9.176;2022-07-06T06:29:20;25.20;36.00
63383;DHT22;49512;48.744;9.176;2022-07-06T06:31:45;24.60;36.90
63383;DHT22;49512;48.744;9.176;2022-07-06T06:34:11;24.60;37.90
63383;DHT22;49512;48.744;9.176;2022-07-06T06:36:36;23.10;39.50
63383;DHT22;49512;48.744;9.176;2022-07-06T06:39:02;23.30;40.20
63383;DHT22;49512;48.744;9.176;2022-07-06T06:41:27;22.60;40.90
63383;DHT22;49512;48.744;9.176;2022-07-06T06:43:53;23.60;40.60
63383;DHT22;49512;48.744;9.176;2022-07-06T06:46:18;21.60;46.00
63383;DHT22;49512;48.744;9.176;2022-07-06T06:48:44;21.70;47.90
63383;DHT22;49512;48.744;9.176;2022-07-06T06:51:09;21.90;47.20
63383;DHT22;49512;48.744;9.176;2022-07-06T06:53:35;21.10;47.10
63383;DHT22;49512;48.744;9.176;2022-07-06T06:56:00;21.30;46.90
63383;DHT22;49512;48.744;9.176;2022-07-06T06:58:26;21.00;50.30
63383;DHT22;49512;48.744;9.176;2022-07-06T07:00:51;21.50;51.80
63383;DHT22;49512;48.744;9.176;2022-07-06T07:03:17;21.30;47.50
63383;DHT22;49512;48.744;9.176;2022-07-06T07:05:43;21.40;48.30
63383;DHT22;49512;48.744;9.176;2022-07-06T07:08:08;22.40;47.60
63383;DHT22;49512;48.744;9.176;2022-07-06T07:10:34;21.70;47.80
63383;DHT22;49512;48.744;9.176;2022-07-06T07:12:59;21.90;47.90
63383;DHT22;49512;48.744;9.176;2022-07-06T07:15:25;21.80;46.80
63383;DHT22;49512;48.744;9.176;2022-07-06T07:17:50;21.80;51.50
63383;DHT22;49512;48.744;9.176;2022-07-06T07:20:16;22.70;49.30
63383;DHT22;49512;48.744;9.176;2022-07-06T07:22:41;22.90;42.00
63383;DHT22;49512;48.744;9.176;2022-07-06T07:25:07;22.60;46.90
63383;DHT22;49512;48.744;9.176;2022-07-06T07:27:33;22.80;47.40
63383;DHT22;49512;48.744;9.176;2022-07-06T07:29:59;22.40;46.10
63383;DHT22;49512;48.744;9.176;2022-07-06T07:32:24;21.60;46.50
63383;DHT22;49512;48.744;9.176;2022-07-06T07:34:50;21.80;50.20
63383;DHT22;49512;48.744;9.176;2022-07-06T07:37:15;21.90;45.90
63383;DHT22;49512;48.744;9.176;2022-07-06T07:39:41;21.70;49.30
63383;DHT22;49512;48.744;9.176;2022-07-06T07:42:07;22.30;50.00
63383;DHT22;49512;48.744;9.176;2022-07-06T07:44:33;22.50;47.80
63383;DHT22;49512;48.744;9.176;2022-07-06T07:46:59;22.90;48.30
63383;DHT22;49512;48.744;9.176;2022-07-06T07:49:24;22.50;45.90
63383;DHT22;49512;48.744;9.176;2022-07-06T07:51:50;22.50;46.30
63383;DHT22;49512;48.744;9.176;2022-07-06T07:54:15;22.50;45.90
63383;DHT22;49512;48.744;9.176;2022-07-06T07:56:41;22.10;45.00
63383;DHT22;49512;48.744;9.176;2022-07-06T07:59:07;21.80;45.60
63383;DHT22;49512;48.744;9.176;2022-07-06T08:01:33;21.90;44.70
63383;DHT22;49512;48.744;9.176;2022-07-06T08:03:58;21.50;45.60
63383;DHT22;49512;48.744;9.176;2022-07-06T08:06:25;21.40;45.80
63383;DHT22;49512;48.744;9.176;2022-07-06T08:08:50;21.80;50.40
63383;DHT22;49512;48.744;9.176;2022-07-06T08:11:16;22.10;48.70
63383;DHT22;49512;48.744;9.176;2022-07-06T08:13:41;22.80;45.20
63383;DHT22;49512;48.744;9.176;2022-07-06T08:16:07;22.50;43.30
63383;DHT22;49512;48.744;9.176;2022-07-06T08:18:33;21.80;45.00
63383;DHT22;49512;48.744;9.176;2022-07-06T08:20:59;22.00;51.10
63383;DHT22;49512;48.744;9.176;2022-07-06T08:23:25;22.00;47.80
63383;DHT22;49512;48.744;9.176;2022-07-06T08:25:50;22.10;45.80
63383;DHT22;49512;48.744;9.176;2022-07-06T08:28:16;22.40;50.90
63383;DHT22;49512;48.744;9.176;2022-07-06T08:30:41;22.40;50.00
63383;DHT22;49512;48.744;9.176;2022-07-06T08:33:07;22.80;49.60
63383;DHT22;49512;48.744;9.176;2022-07-06T08:35:32;22.60;41.30
63383;DHT22;49512;48.744;9.176;2022-07-06T08:37:58;22.40;48.20
63383;DHT22;49512;48.744;9.176;2022-07-06T08:40:23;22.00;44.90
63383;DHT22;49512;48.744;9.176;2022-07-06T08:42:51;21.70;46.80
63383;DHT22;49512;48.744;9.176;2022-07-06T08:45:19;21.90;49.10
63383;DHT22;49512;48.744;9.176;2022-07-06T08:47:44;22.30;53.90
63383;DHT22;49512;48.744;9.176;2022-07-06T08:50:11;22.70;48.30
63383;DHT22;49512;48.744;9.176;2022-07-06T08:52:37;23.00;46.50
63383;DHT22;49512;48.744;9.176;2022-07-06T08:55:02;22.80;48.50
63383;DHT22;49512;48.744;9.176;2022-07-06T08:57:28;22.70;49.30
63383;DHT22;49512;48.744;9.176;2022-07-06T08:59:54;22.40;46.10
63383;DHT22;49512;48.744;9.176;2022-07-06T09:02:19;22.50;46.00
63383;DHT22;49512;48.744;9.176;2022-07-06T09:04:49;22.80;45.70
63383;DHT22;49512;48.744;9.176;2022-07-06T09:07:15;22.60;46.50
63383;DHT22;49512;48.744;9.176;2022-07-06T09:09:42;22.60;45.80
63383;DHT22;49512;48.744;9.176;2022-07-06T09:12:10;22.80;47.40
63383;DHT22;49512;48.744;9.176;2022-07-06T09:14:36;23.10;46.60
63383;DHT22;49512;48.744;9.176;2022-07-06T09:17:03;23.20;51.70
63383;DHT22;49512;48.744;9.176;2022-07-06T09:19:30;23.40;45.50
63383;DHT22;49512;48.744;9.176;2022-07-06T09:21:55;23.10;44.20
63383;DHT22;49512;48.744;9.176;2022-07-06T09:24:21;22.90;41.00
63383;DHT22;49512;48.744;9.176;2022-07-06T09:26:47;23.00;45.50
63383;DHT22;49512;48.744;9.176;2022-07-06T09:29:13;23.20;46.00
63383;DHT22;49512;48.744;9.176;2022-07-06T09:31:39;23.70;50.50
63383;DHT22;49512;48.744;9.176;2022-07-06T09:34:05;23.70;44.80
63383;DHT22;49512;48.744;9.176;2022-07-06T09:36:44;23.30;43.70
63383;DHT22;49512;48.744;9.176;2022-07-06T09:39:23;23.00;46.40
63383;DHT22;49512;48.744;9.176;2022-07-06T09:41:50;23.20;47.70
63383;DHT22;49512;48.744;9.176;2022-07-06T09:44:22;23.20;49.80
63383;DHT22;49512;48.744;9.176;2022-07-06T09:46:49;23.60;43.80
63383;DHT22;49512;48.744;9.176;2022-07-06T09:49:18;23.20;44.00
63383;DHT22;49512;48.744;9.176;2022-07-06T09:51:47;23.30;43.90
63383;DHT22;49512;48.744;9.176;2022-07-06T09:54:14;23.40;43.90
63383;DHT22;49512;48.744;9.176;2022-07-06T09:56:41;23.40;46.50
63383;DHT22;49512;48.744;9.176;2022-07-06T09:59:10;22.90;43.00
63383;DHT22;49512;48.744;9.176;2022-07-06T10:01:36;22.90;43.30
63383;DHT22;49512;48.744;9.176;2022-07-06T10:04:02;22.60;44.00
63383;DHT22;49512;48.744;9.176;2022-07-06T10:06:28;22.80;45.70
63383;DHT22;49512;48.744;9.176;2022-07-06T10:08:54;23.00;48.80
63383;DHT22;49512;48.744;9.176;2022-07-06T10:11:20;22.80;44.00
63383;DHT22;49512;48.744;9.176;2022-07-06T10:13:46;23.00;44.00
63383;DHT22;49512;48.744;9.176;2022-07-06T10:16:13;22.60;44.60
63383;DHT22;49512;48.744;9.176;2022-07-06T10:18:39;22.60;45.50
63383;DHT22;49512;48.744;9.176;2022-07-06T10:21:05;22.90;48.50
63383;DHT22;49512;48.744;9.176;2022-07-06T10:23:31;23.30;50.30
63383;DHT22;49512;48.744;9.176;2022-07-06T10:25:58;23.80;45.60
63383;DHT22;49512;48.744;9.176;2022-07-06T10:28:25;23.30;43.30
63383;DHT22;49512;48.744;9.176;2022-07-06T10:30:51;22.60;44.90
63383;DHT22;49512;48.744;9.176;2022-07-06T10:33:17;23.10;53.00
63383;DHT22;49512;48.744;9.176;2022-07-06T10:35:43;23.20;42.80
63383;DHT22;49512;48.744;9.176;2022-07-06T10:38:09;22.80;45.00
63383;DHT22;49512;48.744;9.176;2022-07-06T10:40:35;22.50;46.10
63383;DHT22;49512;48.744;9.176;2022-07-06T10:43:19;22.40;48.50
63383;DHT22;49512;48.744;9.176;2022-07-06T10:50:40;23.10;49.70
63383;DHT22;49512;48.744;9.176;2022-07-06T10:53:15;23.40;50.50
63383;DHT22;49512;48.744;9.176;2022-07-06T10:55:43;23.50;44.90
63383;DHT22;49512;48.744;9.176;2022-07-06T10:58:09;23.60;44.80
63383;DHT22;49512;48.744;9.176;2022-07-06T11:00:57;23.60;43.60
63383;DHT22;49512;48.744;9.176;2022-07-06T11:03:34;23.20;45.60
63383;DHT22;49512;48.744;9.176;2022-07-06T11:06:01;22.80;44.70
63383;DHT22;49512;48.744;9.176;2022-07-06T11:11:14;22.70;47.00
63383;DHT22;49512;48.744;9.176;2022-07-06T11:14:01;23.00;46.90
63383;DHT22;49512;48.744;9.176;2022-07-06T11:16:27;23.00;47.60
63383;DHT22;49512;48.744;9.176;2022-07-06T11:19:26;22.40;47.00
63383;DHT22;49512;48.744;9.176;2022-07-06T11:21:48;22.50;46.70
63383;DHT22;49512;48.744;9.176;2022-07-06T11:24:16;22.90;47.10
63383;DHT22;49512;48.744;9.176;2022-07-06T11:26:43;23.30;47.80
63383;DHT22;49512;48.744;9.176;2022-07-06T11:29:09;23.30;49.20
63383;DHT22;49512;48.744;9.176;2022-07-06T11:31:36;23.60;47.90
63383;DHT22;49512;48.744;9.176;2022-07-06T11:34:03;23.90;44.40
63383;DHT22;49512;48.744;9.176;2022-07-06T11:36:28;23.30;42.20
63383;DHT22;49512;48.744;9.176;2022-07-06T11:38:54;23.60;45.40
63383;DHT22;49512;48.744;9.176;2022-07-06T11:41:20;23.10;46.50
63383;DHT22;49512;48.744;9.176;2022-07-06T11:43:46;22.90;44.80
63383;DHT22;49512;48.744;9.176;2022-07-06T11:46:19;22.80;46.60
63383;DHT22;49512;48.744;9.176;2022-07-06T11:48:51;22.90;46.00
63383;DHT22;49512;48.744;9.176;2022-07-06T11:51:17;22.40;47.30
63383;DHT22;49512;48.744;9.176;2022-07-06T11:53:46;22.40;48.60
63383;DHT22;49512;48.744;9.176;2022-07-06T11:56:14;22.40;47.40
63383;DHT22;49512;48.744;9.176;2022-07-06T11:58:41;23.00;49.00
63383;DHT22;49512;48.744;9.176;2022-07-06T12:01:10;23.40;48.90
63383;DHT22;49512;48.744;9.176;2022-07-06T12:03:36;23.60;45.20
63383;DHT22;49512;48.744;9.176;2022-07-06T12:06:05;23.20;43.50
63383;DHT22;49512;48.744;9.176;2022-07-06T12:08:31;23.20;46.10
63383;DHT22;49512;48.744;9.176;2022-07-06T12:10:59;23.50;47.90
63383;DHT22;49512;48.744;9.176;2022-07-06T12:13:24;22.70;45.00
63383;DHT22;49512;48.744;9.176;2022-07-06T12:15:50;23.00;48.80
63383;DHT22;49512;48.744;9.176;2022-07-06T12:18:16;23.20;47.60
63383;DHT22;49512;48.744;9.176;2022-07-06T12:20:42;23.10;46.00
63383;DHT22;49512;48.744;9.176;2022-07-06T12:23:08;23.20;46.90
63383;DHT22;49512;48.744;9.176;2022-07-06T12:25:34;23.60;45.40
63383;DHT22;49512;48.744;9.176;2022-07-06T12:27:59;23.80;43.20
63383;DHT22;49512;48.744;9.176;2022-07-06T12:30:25;24.20;45.50
63383;DHT22;49512;48.744;9.176;2022-07-06T12:35:35;24.20;45.60
63383;DHT22;49512;48.744;9.176;2022-07-06T12:38:00;23.70;43.30
63383;DHT22;49512;48.744;9.176;2022-07-06T12:40:26;23.40;42.50
63383;DHT22;49512;48.744;9.176;2022-07-06T12:42:55;23.30;43.80
63383;DHT22;49512;48.744;9.176;2022-07-06T12:45:26;23.40;43.90
63383;DHT22;49512;48.744;9.176;2022-07-06T12:50:31;23.20;44.30
63383;DHT22;49512;48.744;9.176;2022-07-06T12:52:58;22.60;45.60
63383;DHT22;49512;48.744;9.176;2022-07-06T12:55:27;22.20;46.10
63383;DHT22;49512;48.744;9.176;2022-07-06T12:57:53;21.90;48.10
63383;DHT22;49512;48.744;9.176;2022-07-06T13:00:19;21.50;48.10
63383;DHT22;49512;48.744;9.176;2022-07-06T13:02:46;21.80;49.00
63383;DHT22;49512;48.744;9.176;2022-07-06T13:05:13;21.90;49.80
63383;DHT22;49512;48.744;9.176;2022-07-06T13:07:43;22.30;49.50
63383;DHT22;49512;48.744;9.176;2022-07-06T13:10:09;22.80;46.50
63383;DHT22;49512;48.744;9.176;2022-07-06T13:12:35;23.00;45.90
63383;DHT22;49512;48.744;9.176;2022-07-06T13:15:01;22.70;44.60
63383;DHT22;49512;48.744;9.176;2022-07-06T13:17:26;23.00;46.20
63383;DHT22;49512;48.744;9.176;2022-07-06T13:19:52;22.90;43.60
63383;DHT22;49512;48.744;9.176;2022-07-06T13:22:17;22.80;46.20
63383;DHT22;49512;48.744;9.176;2022-07-06T13:24:43;22.60;46.80
63383;DHT22;49512;48.744;9.176;2022-07-06T13:27:09;22.60;48.00
63383;DHT22;49512;48.744;9.176;2022-07-06T13:29:34;22.50;47.10
63383;DHT22;49512;48.744;9.176;2022-07-06T13:32:00;22.70;46.70
63383;DHT22;49512;48.744;9.176;2022-07-06T13:34:25;23.00;44.00
63383;DHT22;49512;48.744;9.176;2022-07-06T13:36:51;22.90;43.00
63383;DHT22;49512;48.744;9.176;2022-07-06T13:39:17;22.70;44.50
63383;DHT22;49512;48.744;9.176;2022-07-06T13:41:46;22.60;49.00
63383;DHT22;49512;48.744;9.176;2022-07-06T13:44:12;22.60;45.10
63383;DHT22;49512;48.744;9.176;2022-07-06T13:46:37;22.20;45.50
63383;DHT22;49512;48.744;9.176;2022-07-06T13:49:04;22.60;45.50
63383;DHT22;49512;48.744;9.176;2022-07-06T13:51:30;23.00;46.10
63383;DHT22;49512;48.744;9.176;2022-07-06T13:54:00;22.90;42.40
63383;DHT22;49512;48.744;9.176;2022-07-06T13:56:26;22.40;45.30
63383;DHT22;49512;48.744;9.176;2022-07-06T13:58:52;21.80;45.90
63383;DHT22;49512;48.744;9.176;2022-07-06T14:01:18;21.90;46.60
63383;DHT22;49512;48.744;9.176;2022-07-06T14:03:44;21.60;49.00
63383;DHT22;49512;48.744;9.176;2022-07-06T14:06:09;21.80;46.90
63383;DHT22;49512;48.744;9.176;2022-07-06T14:08:35;21.70;46.70
63383;DHT22;49512;48.744;9.176;2022-07-06T14:11:01;21.60;48.80
63383;DHT22;49512;48.744;9.176;2022-07-06T14:13:27;21.80;46.70
63383;DHT22;49512;48.744;9.176;2022-07-06T14:15:53;22.10;47.40
63383;DHT22;49512;48.744;9.176;2022-07-06T14:18:18;22.30;49.70
63383;DHT22;49512;48.744;9.176;2022-07-06T14:20:44;22.20;47.00
63383;DHT22;49512;48.744;9.176;2022-07-06T14:23:10;22.50;45.10
63383;DHT22;49512;48.744;9.176;2022-07-06T14:25:36;22.30;44.30
63383;DHT22;49512;48.744;9.176;2022-07-06T14:28:02;22.20;43.60
63383;DHT22;49512;48.744;9.176;2022-07-06T14:30:27;22.40;45.60
63383;DHT22;49512;48.744;9.176;2022-07-06T14:32:53;22.40;42.80
63383;DHT22;49512;48.744;9.176;2022-07-06T14:35:19;22.20;42.90
63383;DHT22;49512;48.744;9.176;2022-07-06T14:37:44;22.10;42.20
63383;DHT22;49512;48.744;9.176;2022-07-06T14:40:10;22.10;44.10
63383;DHT22;49512;48.744;9.176;2022-07-06T14:42:35;22.00;44.90
63383;DHT22;49512;48.744;9.176;2022-07-06T14:45:01;22.00;46.60
63383;DHT22;49512;48.744;9.176;2022-07-06T14:47:26;21.90;45.60
63383;DHT22;49512;48.744;9.176;2022-07-06T14:49:52;21.90;44.20
63383;DHT22;49512;48.744;9.176;2022-07-06T14:52:18;21.90;44.10
63383;DHT22;49512;48.744;9.176;2022-07-06T14:54:43;22.00;44.30
63383;DHT22;49512;48.744;9.176;2022-07-06T14:57:09;22.20;45.00
63383;DHT22;49512;48.744;9.176;2022-07-06T14:59:35;22.30;44.30
63383;DHT22;49512;48.744;9.176;2022-07-06T15:02:01;22.30;42.20
63383;DHT22;49512;48.744;9.176;2022-07-06T15:04:27;22.30;43.00
63383;DHT22;49512;48.744;9.176;2022-07-06T15:06:52;22.20;43.50
63383;DHT22;49512;48.744;9.176;2022-07-06T15:09:18;21.80;42.50
63383;DHT22;49512;48.744;9.176;2022-07-06T15:11:43;21.90;44.30
63383;DHT22;49512;48.744;9.176;2022-07-06T15:14:10;22.20;45.20
63383;DHT22;49512;48.744;9.176;2022-07-06T15:16:36;22.00;43.80
63383;DHT22;49512;48.744;9.176;2022-07-06T15:19:02;22.10;42.90
63383;DHT22;49512;48.744;9.176;2022-07-06T15:21:27;22.40;43.90
63383;DHT22;49512;48.744;9.176;2022-07-06T15:23:53;22.20;42.20
63383;DHT22;49512;48.744;9.176;2022-07-06T15:26:18;22.00;42.80
63383;DHT22;49512;48.744;9.176;2022-07-06T15:28:44;21.90;43.00
63383;DHT22;49512;48.744;9.176;2022-07-06T15:31:09;22.20;43.00
63383;DHT22;49512;48.744;9.176;2022-07-06T15:33:35;22.20;40.80
63383;DHT22;49512;48.744;9.176;2022-07-06T15:36:00;22.00;42.80
63383;DHT22;49512;48.744;9.176;2022-07-06T15:38:26;22.10;42.30